Time;durP1;ratioP1;P1;durP2;ratioP2;P2;SDS_P1;SDS_P2;PMS_P1;PMS_P2;Temp;Humidity;BMP_temperature;BMP_pressure;BME280_temperature;BME280_humidity;BME280_pressure;Samples;Min_cycle;Max_cycle;Signal;HPM_P1;HPM_P2
2021/12/16 00:08:35;;;;;;;45.25;37.13;;;;;;;;;;5034407;28;20049;-55
2021/12/16 00:11:25;;;;;;;50.22;37.40;;;;;;;;;;5018387;28;20091;-55
2021/12/16 00:19:43;;;;;;;43.92;36.20;;;;;;;;;;5033789;28;20088;-55
2021/12/16 00:36:06;;;;;;;47.83;36.55;;;;;;;;;;4925386;29;20046;-56
2021/12/16 00:38:36;;;;;;;45.08;36.53;;;;;;;;;;5001299;28;20565;-56
2021/12/16 00:41:03;;;;;;;45.13;35.40;;;;;;;;;;5013751;28;20046;-56
2021/12/16 00:43:45;;;;;;;52.13;39.05;;;;;;;;;;5029548;28;20091;-56
2021/12/16 00:46:43;;;;;;;45.05;38.40;;;;;;;;;;5033267;28;20056;-56
2021/12/16 00:49:19;;;;;;;47.10;37.13;;;;;;;;;;5032983;28;20048;-55
2021/12/16 00:54:34;;;;;;;46.13;36.08;;;;;;;;;;5015188;28;20056;-56
2021/12/16 00:57:07;;;;;;;45.55;38.30;;;;;;;;;;5033699;28;20064;-57
2021/12/16 00:59:38;;;;;;;44.97;34.35;;;;;;;;;;5033035;28;20041;-57
2021/12/16 01:35:53;;;;;;;57.10;43.22;;;;;;;;;;5015295;28;20091;-53
2021/12/16 01:50:57;;;;;;;49.22;41.05;;;;;;;;;;5014375;28;20120;-53
2021/12/16 01:59:04;;;;;;;53.08;39.17;;;;;;;;;;4999314;28;20041;-55
2021/12/16 02:01:34;;;;;;;46.17;37.28;;;;;;;;;;5014592;28;20037;-56
2021/12/16 02:04:39;;;;;;;46.10;38.08;;;;;;;;;;5014458;28;20096;-55
2021/12/16 02:07:24;;;;;;;45.17;35.65;;;;;;;;;;5032548;28;20499;-55
2021/12/16 02:09:50;;;;;;;43.00;36.67;;;;;;;;;;5014443;28;20045;-53
2021/12/16 02:12:44;;;;;;;48.03;35.70;;;;;;;;;;5032362;28;20041;-54
2021/12/16 02:37:19;;;;;;;36.60;30.60;;;;;;;;;;4971824;28;20125;-55
2021/12/16 02:39:49;;;;;;;35.35;28.95;;;;;;;;;;5013601;28;20499;-55
2021/12/16 02:42:22;;;;;;;41.33;27.35;;;;;;;;;;5031765;28;20514;-54
2021/12/16 02:50:24;;;;;;;38.03;28.17;;;;;;;;;;5032043;28;20052;-52
2021/12/16 02:52:52;;;;;;;42.35;27.38;;;;;;;;;;5031713;28;20079;-55
2021/12/16 02:55:20;;;;;;;36.05;28.17;;;;;;;;;;5032010;28;20050;-56
2021/12/16 02:57:59;;;;;;;34.42;26.85;;;;;;;;;;5013543;28;20038;-57
2021/12/16 03:00:29;;;;;;;32.67;26.45;;;;;;;;;;5014271;28;20500;-56
2021/12/16 03:02:57;;;;;;;30.35;24.83;;;;;;;;;;5035119;28;20071;-55
2021/12/16 03:05:24;;;;;;;30.20;25.83;;;;;;;;;;5017759;28;20450;-55
2021/12/16 03:07:52;;;;;;;33.60;26.23;;;;;;;;;;5035312;28;20053;-54
2021/12/16 03:12:59;;;;;;;36.88;30.17;;;;;;;;;;5017568;28;20073;-55
2021/12/16 03:19:03;;;;;;;40.55;32.95;;;;;;;;;;5017574;28;20100;-56
2021/12/16 03:21:27;;;;;;;33.50;27.85;;;;;;;;;;5017335;28;20049;-56
2021/12/16 03:34:37;;;;;;;48.67;36.88;;;;;;;;;;5017278;28;20132;-56
2021/12/16 03:37:21;;;;;;;56.40;40.10;;;;;;;;;;5034602;28;20055;-57
2021/12/16 03:39:57;;;;;;;50.45;39.92;;;;;;;;;;5017184;28;20049;-56
2021/12/16 03:42:29;;;;;;;49.80;40.47;;;;;;;;;;5016767;28;20056;-56
2021/12/16 03:45:05;;;;;;;51.80;40.97;;;;;;;;;;5017246;28;20606;-55
2021/12/16 03:47:40;;;;;;;49.15;39.63;;;;;;;;;;5016427;28;20563;-56
2021/12/16 03:50:20;;;;;;;42.70;34.88;;;;;;;;;;5016825;28;20152;-56
2021/12/16 03:52:51;;;;;;;40.83;31.83;;;;;;;;;;5016631;28;20088;-56
2021/12/16 03:55:19;;;;;;;45.47;35.63;;;;;;;;;;5034549;28;20096;-55
2021/12/16 03:57:47;;;;;;;40.72;31.98;;;;;;;;;;5016619;28;20045;-54
2021/12/16 04:00:24;;;;;;;46.53;34.83;;;;;;;;;;5016793;28;20538;-52
2021/12/16 04:02:57;;;;;;;39.55;31.30;;;;;;;;;;5016303;28;20045;-49
2021/12/16 04:05:29;;;;;;;44.35;32.40;;;;;;;;;;5016600;28;20448;-51
2021/12/16 04:08:02;;;;;;;42.78;33.45;;;;;;;;;;5016341;28;20168;-53
2021/12/16 04:11:16;;;;;;;40.53;32.28;;;;;;;;;;5023045;28;20049;-52
2021/12/16 04:13:59;;;;;;;42.88;31.55;;;;;;;;;;5008711;28;20091;-54
2021/12/16 04:16:39;;;;;;;39.33;32.42;;;;;;;;;;5011466;28;20634;-54
2021/12/16 04:19:12;;;;;;;33.85;28.33;;;;;;;;;;5014696;28;20500;-55
2021/12/16 04:21:52;;;;;;;43.83;29.20;;;;;;;;;;5016414;28;20499;-52
2021/12/16 04:24:20;;;;;;;35.13;28.15;;;;;;;;;;5015773;28;20049;-53
2021/12/16 04:26:49;;;;;;;37.10;27.40;;;;;;;;;;5016147;28;20121;-53
2021/12/16 04:29:17;;;;;;;35.30;28.52;;;;;;;;;;5015810;28;20049;-53
2021/12/16 04:31:45;;;;;;;35.55;26.95;;;;;;;;;;4998723;28;20042;-52
2021/12/16 04:34:14;;;;;;;35.13;28.55;;;;;;;;;;4996464;28;20050;-51
2021/12/16 04:36:41;;;;;;;36.92;27.63;;;;;;;;;;4996118;28;20048;-53
2021/12/16 04:39:14;;;;;;;32.95;29.35;;;;;;;;;;5017953;28;20045;-51
2021/12/16 04:41:42;;;;;;;35.50;27.25;;;;;;;;;;5014130;28;20565;-53
2021/12/16 04:44:12;;;;;;;40.28;30.90;;;;;;;;;;5024135;28;20049;-50
2021/12/16 04:46:40;;;;;;;39.60;31.65;;;;;;;;;;5002380;28;20038;-51
2021/12/16 04:49:08;;;;;;;41.60;32.72;;;;;;;;;;5012929;28;20614;-53
2021/12/16 04:51:42;;;;;;;36.90;31.05;;;;;;;;;;5015499;28;20056;-53
2021/12/16 04:54:10;;;;;;;41.97;32.38;;;;;;;;;;5015512;28;20064;-50
2021/12/16 04:56:39;;;;;;;41.92;33.70;;;;;;;;;;5032998;28;20037;-51
2021/12/16 04:59:10;;;;;;;42.28;32.45;;;;;;;;;;5015480;28;20042;-51
2021/12/16 05:01:43;;;;;;;37.20;29.92;;;;;;;;;;5015541;28;20045;-52
2021/12/16 05:04:10;;;;;;;38.58;29.13;;;;;;;;;;5015363;28;20096;-52
2021/12/16 05:06:38;;;;;;;37.60;29.23;;;;;;;;;;5015421;28;20065;-51
2021/12/16 05:09:11;;;;;;;36.38;29.38;;;;;;;;;;5015714;28;20057;-51
2021/12/16 05:11:44;;;;;;;38.85;31.02;;;;;;;;;;5015725;28;20495;-51
2021/12/16 05:14:11;;;;;;;42.15;30.70;;;;;;;;;;5014693;28;20518;-53
2021/12/16 05:16:42;;;;;;;32.45;25.20;;;;;;;;;;5015259;28;20073;-54
2021/12/16 05:19:09;;;;;;;33.40;25.80;;;;;;;;;;5014958;28;20045;-53
2021/12/16 05:21:53;;;;;;;31.33;24.88;;;;;;;;;;5013196;28;20068;-52
2021/12/16 05:24:26;;;;;;;30.33;24.45;;;;;;;;;;5013306;28;20056;-52
2021/12/16 05:27:09;;;;;;;33.05;24.88;;;;;;;;;;5010367;28;20048;-52
2021/12/16 05:29:38;;;;;;;33.90;25.60;;;;;;;;;;5006796;28;20056;-56
2021/12/16 05:32:07;;;;;;;34.75;26.38;;;;;;;;;;4999124;28;20040;-56
2021/12/16 05:34:34;;;;;;;35.75;26.92;;;;;;;;;;5013338;28;20120;-54
2021/12/16 05:37:05;;;;;;;41.55;29.85;;;;;;;;;;5008947;28;20052;-55
2021/12/16 05:39:35;;;;;;;34.13;27.20;;;;;;;;;;5031641;28;20527;-54
2021/12/16 05:42:33;;;;;;;39.83;30.23;;;;;;;;;;5012148;28;20107;-55
2021/12/16 05:44:59;;;;;;;39.60;31.42;;;;;;;;;;5012039;28;20041;-53
2021/12/16 05:47:27;;;;;;;36.47;28.65;;;;;;;;;;5013837;28;20079;-55
2021/12/16 05:49:54;;;;;;;42.50;28.05;;;;;;;;;;5014068;28;20045;-54
2021/12/16 05:52:21;;;;;;;36.50;27.67;;;;;;;;;;5009105;28;20049;-57
2021/12/16 05:54:48;;;;;;;38.47;30.70;;;;;;;;;;5031801;28;20041;-51
2021/12/16 05:57:29;;;;;;;42.35;35.13;;;;;;;;;;5010116;28;20385;-56
2021/12/16 06:00:09;;;;;;;41.45;33.75;;;;;;;;;;5009189;28;20401;-56
2021/12/16 06:02:40;;;;;;;42.72;32.90;;;;;;;;;;5029182;28;20056;-57
2021/12/16 06:05:08;;;;;;;37.45;30.60;;;;;;;;;;5013610;28;20400;-55
2021/12/16 06:07:35;;;;;;;44.83;31.48;;;;;;;;;;5010743;28;20064;-57
2021/12/16 06:10:05;;;;;;;36.35;29.98;;;;;;;;;;5012812;28;20072;-57
2021/12/16 06:12:32;;;;;;;39.92;32.17;;;;;;;;;;5030534;28;20053;-52
2021/12/16 06:28:10;;;;;;;28.77;24.63;;;;;;;;;;5030509;28;20060;-55
2021/12/16 06:30:40;;;;;;;37.50;27.20;;;;;;;;;;5030515;28;20545;-51
2021/12/16 06:33:09;;;;;;;35.45;26.50;;;;;;;;;;5026773;28;20550;-52
2021/12/16 06:35:36;;;;;;;37.10;29.42;;;;;;;;;;5031010;28;20048;-53
2021/12/16 06:38:08;;;;;;;33.00;26.33;;;;;;;;;;5014425;28;20044;-51
2021/12/16 06:40:47;;;;;;;30.77;23.58;;;;;;;;;;5019680;28;20044;-53
2021/12/16 06:43:37;;;;;;;31.60;25.35;;;;;;;;;;5030209;28;20443;-54
2021/12/16 06:46:08;;;;;;;35.53;26.60;;;;;;;;;;5014927;28;20053;-51
2021/12/16 06:48:39;;;;;;;33.70;26.45;;;;;;;;;;5032067;28;20145;-53
2021/12/16 06:51:12;;;;;;;31.98;24.52;;;;;;;;;;5032129;28;20107;-54
2021/12/16 06:54:00;;;;;;;31.35;26.15;;;;;;;;;;5033532;28;20041;-55
2021/12/16 06:56:35;;;;;;;30.10;25.38;;;;;;;;;;5031001;28;20052;-53
2021/12/16 06:59:22;;;;;;;31.05;25.35;;;;;;;;;;5031883;28;20050;-54
2021/12/16 07:04:37;;;;;;;29.55;22.13;;;;;;;;;;5026625;28;20065;-47
2021/12/16 07:07:06;;;;;;;30.38;24.40;;;;;;;;;;5026876;28;20045;-52
2021/12/16 07:09:33;;;;;;;29.48;23.65;;;;;;;;;;5028863;28;20099;-51
2021/12/16 07:12:00;;;;;;;27.58;23.48;;;;;;;;;;5032023;28;20037;-47
2021/12/16 07:14:39;;;;;;;26.30;22.60;;;;;;;;;;5033316;28;20404;-53
2021/12/16 07:17:15;;;;;;;30.00;21.58;;;;;;;;;;5029702;28;20045;-52
2021/12/16 07:19:43;;;;;;;28.90;23.77;;;;;;;;;;5033649;28;20045;-56
2021/12/16 07:22:11;;;;;;;28.45;23.25;;;;;;;;;;5033821;28;20041;-50
2021/12/16 07:24:39;;;;;;;30.55;24.35;;;;;;;;;;5033354;28;20159;-55
2021/12/16 07:27:07;;;;;;;29.60;24.02;;;;;;;;;;5032494;28;20038;-54
2021/12/16 07:29:34;;;;;;;28.00;22.60;;;;;;;;;;5032867;28;20053;-54
2021/12/16 07:32:01;;;;;;;25.92;21.17;;;;;;;;;;5030895;28;20042;-52
2021/12/16 07:34:30;;;;;;;26.55;21.95;;;;;;;;;;5033463;28;20118;-51
2021/12/16 07:36:59;;;;;;;28.92;22.52;;;;;;;;;;5030112;28;20037;-52
2021/12/16 07:39:37;;;;;;;34.75;25.90;;;;;;;;;;5032867;28;20041;-54
2021/12/16 07:42:06;;;;;;;37.97;27.27;;;;;;;;;;5032471;28;20488;-53
2021/12/16 07:44:34;;;;;;;34.53;28.23;;;;;;;;;;5032690;28;20068;-58
2021/12/16 07:47:06;;;;;;;32.65;26.08;;;;;;;;;;5031995;28;20037;-51
2021/12/16 07:49:39;;;;;;;31.85;23.92;;;;;;;;;;5033571;28;20041;-51
2021/12/16 07:52:12;;;;;;;42.50;26.33;;;;;;;;;;5030958;28;20041;-52
2021/12/16 07:54:39;;;;;;;37.83;27.73;;;;;;;;;;5030511;28;20818;-52
2021/12/16 07:57:06;;;;;;;34.60;28.42;;;;;;;;;;5031783;28;20041;-53
2021/12/16 07:59:34;;;;;;;32.55;28.38;;;;;;;;;;5032338;28;20046;-52
2021/12/16 08:02:03;;;;;;;37.53;27.80;;;;;;;;;;5032813;28;20128;-58
2021/12/16 08:04:31;;;;;;;35.67;29.90;;;;;;;;;;5031849;28;20047;-53
2021/12/16 08:07:03;;;;;;;37.85;30.75;;;;;;;;;;5032170;28;20037;-55
2021/12/16 08:09:40;;;;;;;42.65;32.83;;;;;;;;;;5030548;28;20381;-49
2021/12/16 08:12:09;;;;;;;40.88;32.17;;;;;;;;;;5031848;28;20041;-55
2021/12/16 08:14:36;;;;;;;41.13;31.83;;;;;;;;;;5026188;28;20405;-51
2021/12/16 08:17:03;;;;;;;40.58;31.90;;;;;;;;;;5018913;28;20504;-50
2021/12/16 08:19:32;;;;;;;39.83;32.78;;;;;;;;;;5021570;28;20029;-50
2021/12/16 08:21:59;;;;;;;40.92;31.85;;;;;;;;;;5019462;28;20049;-52
2021/12/16 08:24:27;;;;;;;37.63;28.17;;;;;;;;;;5024873;28;20045;-52
2021/12/16 08:26:54;;;;;;;42.28;30.50;;;;;;;;;;5024189;28;20110;-53
2021/12/16 08:29:21;;;;;;;39.78;31.65;;;;;;;;;;5020952;28;20057;-55
2021/12/16 08:31:48;;;;;;;47.85;35.97;;;;;;;;;;5025247;28;20045;-54
2021/12/16 08:34:16;;;;;;;48.75;37.95;;;;;;;;;;5022688;28;20053;-51
2021/12/16 08:36:43;;;;;;;48.65;37.58;;;;;;;;;;5029143;28;20052;-51
2021/12/16 08:39:16;;;;;;;53.60;41.97;;;;;;;;;;5032399;28;20053;-53
2021/12/16 08:41:53;;;;;;;61.47;46.65;;;;;;;;;;5032760;28;20045;-53
2021/12/16 08:44:21;;;;;;;62.25;45.88;;;;;;;;;;5032500;28;20038;-52
2021/12/16 08:46:55;;;;;;;57.75;43.95;;;;;;;;;;5031050;28;20049;-53
2021/12/16 08:49:23;;;;;;;63.90;49.70;;;;;;;;;;5032493;28;20045;-54
2021/12/16 08:51:52;;;;;;;63.30;49.50;;;;;;;;;;5033278;28;20037;-52
2021/12/16 08:54:20;;;;;;;69.32;51.42;;;;;;;;;;5032462;28;20087;-50
2021/12/16 08:56:48;;;;;;;67.22;48.47;;;;;;;;;;5032434;28;20492;-56
2021/12/16 08:59:16;;;;;;;62.22;49.40;;;;;;;;;;5013935;28;20050;-52
2021/12/16 09:01:46;;;;;;;66.45;48.95;;;;;;;;;;5032386;28;20067;-54
2021/12/16 09:04:19;;;;;;;57.15;44.92;;;;;;;;;;5032448;28;20048;-56
2021/12/16 09:06:47;;;;;;;60.03;44.33;;;;;;;;;;5032269;28;20482;-54
2021/12/16 09:09:14;;;;;;;54.67;44.05;;;;;;;;;;5031993;28;20045;-55
2021/12/16 09:11:59;;;;;;;55.05;43.40;;;;;;;;;;5031901;28;20053;-53
2021/12/16 09:14:27;;;;;;;56.33;46.08;;;;;;;;;;5032261;28;20496;-51
2021/12/16 09:16:54;;;;;;;63.63;48.15;;;;;;;;;;5032059;28;20057;-52
2021/12/16 09:19:21;;;;;;;64.70;48.42;;;;;;;;;;5032326;28;20510;-56
2021/12/16 09:21:48;;;;;;;58.17;46.72;;;;;;;;;;5031863;28;20048;-50
2021/12/16 09:24:15;;;;;;;60.25;43.40;;;;;;;;;;5032600;28;20045;-54
2021/12/16 09:26:44;;;;;;;57.80;43.28;;;;;;;;;;5031375;28;20056;-54
2021/12/16 09:29:11;;;;;;;62.45;42.75;;;;;;;;;;5031820;28;20057;-55
2021/12/16 09:31:38;;;;;;;55.53;42.88;;;;;;;;;;5031951;28;20042;-52
2021/12/16 09:34:08;;;;;;;53.33;39.40;;;;;;;;;;5031403;28;20046;-51
2021/12/16 09:36:38;;;;;;;53.40;40.50;;;;;;;;;;5031385;28;20057;-53
2021/12/16 09:39:11;;;;;;;49.95;39.58;;;;;;;;;;5030916;28;20050;-52
2021/12/16 09:41:40;;;;;;;60.15;42.30;;;;;;;;;;5032282;28;20041;-54
2021/12/16 09:44:08;;;;;;;57.85;41.30;;;;;;;;;;5031863;28;20046;-53
2021/12/16 09:46:35;;;;;;;52.45;40.40;;;;;;;;;;5031993;28;20057;-52
2021/12/16 09:49:03;;;;;;;54.40;42.20;;;;;;;;;;5031608;28;20041;-53
2021/12/16 09:51:32;;;;;;;51.80;42.63;;;;;;;;;;5031885;28;20048;-51
2021/12/16 09:54:03;;;;;;;55.28;44.33;;;;;;;;;;5031148;28;20045;-53
2021/12/16 09:56:31;;;;;;;53.33;41.38;;;;;;;;;;5031039;28;20057;-52
2021/12/16 09:59:01;;;;;;;64.88;45.40;;;;;;;;;;5031500;28;20045;-55
2021/12/16 10:01:28;;;;;;;54.58;42.92;;;;;;;;;;5029750;28;20041;-54
2021/12/16 10:04:02;;;;;;;54.67;40.13;;;;;;;;;;5029539;28;20049;-50
2021/12/16 10:06:31;;;;;;;55.13;41.65;;;;;;;;;;5030160;28;20042;-51
2021/12/16 10:09:04;;;;;;;50.10;39.80;;;;;;;;;;5027676;28;20444;-54
2021/12/16 10:11:33;;;;;;;47.72;39.72;;;;;;;;;;5023515;28;20046;-52
2021/12/16 10:14:18;;;;;;;51.67;40.00;;;;;;;;;;5034215;28;20041;-54
2021/12/16 10:19:33;;;;;;;66.45;49.72;;;;;;;;;;5026022;28;20379;-51
2021/12/16 10:22:15;;;;;;;74.30;51.42;;;;;;;;;;5033739;28;20038;-49
2021/12/16 10:24:42;;;;;;;73.18;54.65;;;;;;;;;;5033766;28;20104;-49
2021/12/16 10:27:16;;;;;;;73.65;55.10;;;;;;;;;;5033821;28;20046;-55
2021/12/16 10:29:53;;;;;;;71.22;54.50;;;;;;;;;;5035869;28;20037;-56
2021/12/16 10:32:40;;;;;;;79.63;58.20;;;;;;;;;;5034353;28;20487;-51
2021/12/16 10:35:15;;;;;;;76.03;57.75;;;;;;;;;;5026064;28;20152;-54
2021/12/16 10:37:52;;;;;;;69.78;55.13;;;;;;;;;;5026909;28;20048;-50
2021/12/16 10:40:33;;;;;;;72.10;56.03;;;;;;;;;;5028778;28;20076;-54
2021/12/16 10:43:16;;;;;;;73.32;57.15;;;;;;;;;;5025708;28;20042;-48
2021/12/16 10:45:47;;;;;;;71.85;58.45;;;;;;;;;;5020756;28;20041;-50
2021/12/16 10:48:24;;;;;;;75.13;56.22;;;;;;;;;;5034317;28;20042;-54
2021/12/16 10:50:54;;;;;;;74.55;57.85;;;;;;;;;;5033694;28;20053;-50
2021/12/16 10:53:43;;;;;;;70.70;58.30;;;;;;;;;;5034951;28;20045;-51
2021/12/16 10:56:10;;;;;;;77.20;57.97;;;;;;;;;;5029295;28;20375;-55
2021/12/16 10:58:50;;;;;;;69.32;55.00;;;;;;;;;;5026087;28;20087;-54
2021/12/16 11:01:59;;;;;;;67.43;53.55;;;;;;;;;;5029095;28;20048;-56
2021/12/16 11:04:46;;;;;;;74.47;53.42;;;;;;;;;;4999904;28;20053;-53
2021/12/16 11:07:31;;;;;;;68.40;52.03;;;;;;;;;;5033755;28;20049;-52
2021/12/16 11:10:12;;;;;;;64.43;52.03;;;;;;;;;;5035196;28;20357;-56
2021/12/16 11:12:45;;;;;;;66.10;50.88;;;;;;;;;;5000056;28;20049;-57
2021/12/16 11:15:23;;;;;;;68.70;48.63;;;;;;;;;;5034053;28;20046;-58
2021/12/16 11:17:53;;;;;;;63.10;51.33;;;;;;;;;;5033761;28;20045;-57
2021/12/16 11:20:25;;;;;;;62.15;47.95;;;;;;;;;;5034592;28;20506;-56
2021/12/16 11:22:57;;;;;;;57.65;46.15;;;;;;;;;;5025656;28;20107;-57
2021/12/16 11:25:39;;;;;;;56.15;45.30;;;;;;;;;;5034493;28;20135;-52
2021/12/16 11:28:21;;;;;;;63.60;45.28;;;;;;;;;;5033130;28;20057;-55
2021/12/16 11:30:59;;;;;;;62.10;46.40;;;;;;;;;;5024071;28;20050;-54
2021/12/16 11:33:38;;;;;;;58.50;45.42;;;;;;;;;;5032918;28;20154;-58
2021/12/16 11:36:05;;;;;;;54.90;44.13;;;;;;;;;;5032120;28;20046;-54
2021/12/16 11:38:36;;;;;;;56.50;45.47;;;;;;;;;;5031974;28;20049;-57
2021/12/16 11:41:16;;;;;;;56.58;44.85;;;;;;;;;;5032189;28;20049;-50
2021/12/16 11:44:28;;;;;;;54.10;42.85;;;;;;;;;;5025261;28;20084;-56
2021/12/16 11:47:02;;;;;;;56.45;46.35;;;;;;;;;;5001350;28;20075;-55
2021/12/16 11:49:31;;;;;;;61.35;48.50;;;;;;;;;;5026185;28;20076;-57
2021/12/16 11:52:08;;;;;;;60.40;49.45;;;;;;;;;;5023537;28;20407;-57
2021/12/16 11:54:43;;;;;;;61.63;48.97;;;;;;;;;;5032057;28;20050;-55
2021/12/16 11:57:09;;;;;;;;;;;;;;;;;;5032395;28;20049;-50
2021/12/16 11:59:46;;;;;;;69.70;49.63;;;;;;;;;;5033652;28;19982;-56
2021/12/16 12:02:32;;;;;;;59.70;46.00;;;;;;;;;;5031996;28;20115;-57
2021/12/16 12:05:31;;;;;;;62.83;46.95;;;;;;;;;;5029018;28;20037;-57
2021/12/16 12:08:04;;;;;;;64.13;47.55;;;;;;;;;;5021429;28;20053;-51
2021/12/16 12:11:02;;;;;;;62.28;49.95;;;;;;;;;;5008180;28;20045;-57
2021/12/16 12:13:39;;;;;;;62.88;48.35;;;;;;;;;;5021809;28;20124;-53
2021/12/16 12:16:24;;;;;;;65.20;49.45;;;;;;;;;;5025131;28;20092;-58
2021/12/16 12:18:58;;;;;;;63.03;48.90;;;;;;;;;;5027641;28;20041;-54
2021/12/16 12:21:54;;;;;;;63.28;47.00;;;;;;;;;;5024157;28;20038;-55
2021/12/16 12:24:26;;;;;;;63.42;50.97;;;;;;;;;;5026557;28;20111;-56
2021/12/16 12:26:58;;;;;;;67.53;48.85;;;;;;;;;;5027243;28;20075;-57
2021/12/16 12:29:32;;;;;;;64.90;49.47;;;;;;;;;;5031303;28;20050;-57
2021/12/16 12:32:14;;;;;;;58.22;46.33;;;;;;;;;;5030488;28;20073;-56
2021/12/16 12:34:48;;;;;;;61.08;47.95;;;;;;;;;;5029362;28;20053;-58
2021/12/16 12:37:19;;;;;;;59.22;45.92;;;;;;;;;;5031962;28;20056;-56
2021/12/16 12:39:50;;;;;;;60.83;46.83;;;;;;;;;;5026006;28;20411;-59
2021/12/16 12:42:18;;;;;;;59.42;46.42;;;;;;;;;;5026504;28;20081;-56
2021/12/16 12:44:46;;;;;;;58.88;45.72;;;;;;;;;;5031335;28;20049;-59
2021/12/16 12:47:17;;;;;;;54.58;43.92;;;;;;;;;;5025208;28;20554;-56
2021/12/16 12:49:44;;;;;;;57.47;45.28;;;;;;;;;;5011198;28;20037;-58
2021/12/16 12:52:22;;;;;;;64.45;50.67;;;;;;;;;;5022627;28;20038;-58
2021/12/16 12:55:07;;;;;;;64.68;51.00;;;;;;;;;;5020274;28;20045;-59
2021/12/16 12:57:37;;;;;;;61.90;48.65;;;;;;;;;;5025071;28;20124;-58
2021/12/16 13:00:24;;;;;;;68.03;52.47;;;;;;;;;;5020607;28;20042;-58
2021/12/16 13:03:08;;;;;;;61.20;49.10;;;;;;;;;;5005376;28;20507;-59
2021/12/16 13:05:35;;;;;;;70.82;52.78;;;;;;;;;;5024874;28;20223;-59
2021/12/16 13:08:09;;;;;;;61.70;49.72;;;;;;;;;;5028030;28;20041;-59
2021/12/16 13:10:44;;;;;;;67.57;53.40;;;;;;;;;;5022750;28;20108;-59
2021/12/16 13:16:35;;;;;;;70.03;53.42;;;;;;;;;;5027538;28;20056;-60
2021/12/16 13:27:32;;;;;;;67.57;53.13;;;;;;;;;;5031071;28;20077;-62
2021/12/16 13:32:42;;;;;;;66.35;54.00;;;;;;;;;;5029843;28;20049;-59
2021/12/16 13:37:55;;;;;;;67.05;52.47;;;;;;;;;;5028747;28;20045;-58
2021/12/16 13:40:38;;;;;;;64.22;52.78;;;;;;;;;;5026860;28;20140;-58
2021/12/16 13:43:16;;;;;;;72.03;52.03;;;;;;;;;;5021917;28;20047;-61
2021/12/16 13:46:26;;;;;;;68.78;54.97;;;;;;;;;;5013383;28;20038;-57
2021/12/16 14:03:08;;;;;;;69.72;54.97;;;;;;;;;;5030328;28;20474;-56
2021/12/16 14:08:37;;;;;;;62.10;52.08;;;;;;;;;;5027147;28;20033;-56
2021/12/16 14:43:57;;;;;;;76.15;57.75;;;;;;;;;;5021576;28;20045;-57
2021/12/16 14:46:25;;;;;;;74.65;58.83;;;;;;;;;;5023183;28;20421;-55
2021/12/16 14:48:53;;;;;;;77.00;58.28;;;;;;;;;;5024723;28;20121;-55
2021/12/16 14:51:20;;;;;;;75.03;57.45;;;;;;;;;;5026063;28;20041;-55
2021/12/16 14:53:52;;;;;;;74.57;56.33;;;;;;;;;;5029202;28;20133;-56
2021/12/16 14:56:32;;;;;;;70.93;55.92;;;;;;;;;;5029190;28;20050;-56
2021/12/16 14:59:02;;;;;;;69.72;52.65;;;;;;;;;;5026021;28;20044;-55
2021/12/16 15:02:00;;;;;;;74.20;56.03;;;;;;;;;;5025426;28;20046;-55
2021/12/16 15:04:29;;;;;;;71.18;56.13;;;;;;;;;;5025846;28;20380;-55
2021/12/16 15:07:03;;;;;;;65.07;52.95;;;;;;;;;;5025650;28;20090;-58
2021/12/16 15:09:35;;;;;;;72.93;57.45;;;;;;;;;;5029364;28;20037;-57
2021/12/16 15:15:19;;;;;;;71.38;51.10;;;;;;;;;;5024257;28;20046;-57
2021/12/16 15:38:11;;;;;;;66.40;52.92;;;;;;;;;;5026966;28;20042;-58
2021/12/16 15:43:19;;;;;;;73.55;55.47;;;;;;;;;;5028120;28;20052;-57
2021/12/16 15:45:50;;;;;;;83.15;60.15;;;;;;;;;;5025737;28;20475;-57
2021/12/16 15:48:22;;;;;;;75.18;55.17;;;;;;;;;;5022973;28;20137;-56
2021/12/16 15:50:59;;;;;;;74.53;59.22;;;;;;;;;;5027486;28;20045;-58
2021/12/16 15:53:36;;;;;;;74.38;60.10;;;;;;;;;;5025846;28;20038;-55
2021/12/16 15:56:09;;;;;;;81.53;58.47;;;;;;;;;;5026025;28;20374;-58
2021/12/16 15:58:49;;;;;;;78.90;59.47;;;;;;;;;;5027510;28;20072;-56
2021/12/16 16:01:20;;;;;;;96.15;62.67;;;;;;;;;;5026208;28;20049;-64
2021/12/16 16:03:48;;;;;;;73.35;58.85;;;;;;;;;;5023708;28;20438;-66
2021/12/16 16:06:16;;;;;;;84.55;68.35;;;;;;;;;;5027756;28;20045;-66
2021/12/16 16:08:50;;;;;;;79.15;60.03;;;;;;;;;;5020317;28;20408;-66
2021/12/16 16:11:27;;;;;;;73.57;58.90;;;;;;;;;;5024002;28;20044;-68
2021/12/16 16:14:00;;;;;;;82.88;60.90;;;;;;;;;;5025924;28;20041;-65
2021/12/16 16:16:36;;;;;;;75.10;58.25;;;;;;;;;;5006269;28;20487;-65
2021/12/16 16:19:04;;;;;;;79.15;58.60;;;;;;;;;;5023063;28;20042;-66
2021/12/16 16:21:36;;;;;;;78.43;59.78;;;;;;;;;;5022512;28;20104;-68
2021/12/16 16:24:12;;;;;;;84.18;64.10;;;;;;;;;;5022764;28;20038;-64
2021/12/16 16:26:41;;;;;;;85.13;62.05;;;;;;;;;;5025713;28;20511;-64
2021/12/16 16:29:16;;;;;;;80.07;62.65;;;;;;;;;;5023314;28;20096;-65
2021/12/16 16:31:43;;;;;;;82.80;63.63;;;;;;;;;;5028246;28;20480;-65
2021/12/16 16:34:20;;;;;;;82.10;62.15;;;;;;;;;;5021459;28;20366;-65
2021/12/16 16:36:54;;;;;;;80.30;63.63;;;;;;;;;;5023790;28;20573;-66
2021/12/16 16:39:27;;;;;;;80.70;63.33;;;;;;;;;;5020493;28;20088;-67
2021/12/16 16:42:01;;;;;;;86.90;67.80;;;;;;;;;;5025690;28;20037;-66
2021/12/16 16:44:30;;;;;;;80.85;65.05;;;;;;;;;;5019710;28;20108;-67
2021/12/16 16:47:12;;;;;;;88.55;66.53;;;;;;;;;;5026051;28;20052;-68
2021/12/16 16:49:53;;;;;;;94.82;63.55;;;;;;;;;;5031416;28;20415;-71
2021/12/16 16:52:27;;;;;;;96.32;69.50;;;;;;;;;;5031726;28;20061;-66
2021/12/16 16:55:05;;;;;;;88.78;67.68;;;;;;;;;;5028368;28;20044;-65
2021/12/16 16:57:45;;;;;;;91.50;67.75;;;;;;;;;;5030121;28;20053;-67
2021/12/16 17:00:17;;;;;;;87.75;66.07;;;;;;;;;;5031958;28;20551;-67
2021/12/16 17:02:48;;;;;;;90.15;66.13;;;;;;;;;;5032688;28;20049;-66
2021/12/16 17:05:26;;;;;;;91.60;69.30;;;;;;;;;;5028406;28;20045;-63
2021/12/16 17:08:16;;;;;;;88.53;66.93;;;;;;;;;;5031733;28;20038;-66
2021/12/16 17:11:16;;;;;;;90.15;68.30;;;;;;;;;;5028929;28;20049;-65
2021/12/16 17:19:12;;;;;;;96.72;69.03;;;;;;;;;;5021862;28;20050;-66
2021/12/16 17:21:40;;;;;;;96.80;69.55;;;;;;;;;;5029586;28;20049;-68
2021/12/16 17:24:12;;;;;;;96.93;70.15;;;;;;;;;;5029431;28;20089;-66
2021/12/16 17:26:43;;;;;;;103.32;74.72;;;;;;;;;;5028041;28;20392;-67
2021/12/16 17:29:25;;;;;;;99.55;72.75;;;;;;;;;;5027757;28;20049;-66
2021/12/16 17:32:04;;;;;;;96.30;74.82;;;;;;;;;;5024168;28;20041;-66
2021/12/16 17:34:36;;;;;;;98.10;71.82;;;;;;;;;;5022836;28;20041;-67
2021/12/16 17:37:07;;;;;;;90.00;69.63;;;;;;;;;;5021101;28;20777;-67
2021/12/16 17:39:45;;;;;;;96.45;73.70;;;;;;;;;;5029413;28;20077;-67
2021/12/16 17:42:34;;;;;;;99.90;76.13;;;;;;;;;;5028291;28;20052;-66
2021/12/16 17:45:25;;;;;;;94.03;70.40;;;;;;;;;;5022142;28;20503;-68
2021/12/16 17:47:53;;;;;;;96.72;72.85;;;;;;;;;;5022699;28;20037;-68
2021/12/16 17:50:27;;;;;;;97.65;74.60;;;;;;;;;;5024886;28;20037;-67
2021/12/16 17:52:55;;;;;;;99.13;75.67;;;;;;;;;;5023273;28;20405;-68
2021/12/16 17:55:27;;;;;;;98.72;75.65;;;;;;;;;;5023288;28;20046;-68
2021/12/16 17:57:59;;;;;;;104.53;78.10;;;;;;;;;;5023684;28;20050;-68
2021/12/16 18:00:41;;;;;;;102.72;74.60;;;;;;;;;;5026497;28;20491;-68
2021/12/16 18:03:17;;;;;;;94.22;72.20;;;;;;;;;;5025576;28;20048;-67
2021/12/16 18:05:49;;;;;;;101.30;73.75;;;;;;;;;;5030674;28;20050;-68
2021/12/16 18:08:35;;;;;;;97.78;74.43;;;;;;;;;;5028949;28;20050;-68
2021/12/16 18:11:18;;;;;;;104.40;76.75;;;;;;;;;;5008255;28;20053;-67
2021/12/16 18:14:10;;;;;;;106.80;77.93;;;;;;;;;;5023685;28;20080;-67
2021/12/16 18:16:45;;;;;;;101.15;76.13;;;;;;;;;;5001141;28;20037;-69
2021/12/16 18:19:25;;;;;;;107.60;76.85;;;;;;;;;;5022256;28;20500;-68
2021/12/16 18:21:56;;;;;;;100.75;77.72;;;;;;;;;;5023983;28;20042;-68
2021/12/16 18:24:35;;;;;;;107.55;78.90;;;;;;;;;;5026612;28;20111;-68
2021/12/16 18:27:03;;;;;;;110.70;79.57;;;;;;;;;;5025258;28;20128;-72
2021/12/16 18:29:34;;;;;;;99.65;77.03;;;;;;;;;;5025223;28;20037;-74
2021/12/16 18:32:01;;;;;;;105.35;78.80;;;;;;;;;;5032025;28;20103;-71
2021/12/16 18:34:29;;;;;;;115.55;80.65;;;;;;;;;;5027469;28;20045;-70
2021/12/16 18:37:07;;;;;;;111.55;82.22;;;;;;;;;;5029523;28;20045;-69
2021/12/16 18:39:38;;;;;;;118.00;88.57;;;;;;;;;;5024708;28;20042;-70
2021/12/16 18:42:09;;;;;;;125.18;90.95;;;;;;;;;;5027345;28;20050;-69
2021/12/16 18:44:40;;;;;;;116.15;85.10;;;;;;;;;;5026727;28;20042;-70
2021/12/16 18:50:07;;;;;;;119.95;88.22;;;;;;;;;;5026444;28;20092;-70
2021/12/16 18:52:48;;;;;;;119.63;87.03;;;;;;;;;;5027741;28;20504;-69
2021/12/16 18:55:20;;;;;;;124.65;89.30;;;;;;;;;;5028347;28;20041;-70
2021/12/16 18:57:47;;;;;;;115.75;88.22;;;;;;;;;;5030278;28;20539;-69
2021/12/16 19:00:14;;;;;;;110.50;85.07;;;;;;;;;;5032959;28;20499;-68